<?xml version="1.0" encoding="UTF-8" standalone="no" ?>
<gpx xmlns="http://www.topografix.com/GPX/1/1" xmlns:xsi="http://www.w3.org/2001/XMLSchema-instance" xsi:schemaLocation="http://www.topografix.com/GPX/1/1 http://www.topografix.com/GPX/1/1/gpx.xsd" version="1.1" creator="VisuGPX - https://www.visugpx.com">
  <metadata>
    <name>Transcaucasie: Géorgie + Arménie</name>
  </metadata>
  <trk>
    <name><![CDATA[Tour d'Europe: étape 460]]></name>
    <extensions>
      <line xmlns="http://www.topografix.com/GPX/gpx_style/0/2">
        <color>00FF00</color>
        <width>4</width>
      </line>
    </extensions>
    <trkseg>
      <trkpt lat="41.26486" lon="43.59118">
        <ele>1961.087125</ele>
        <time>2021-10-01T05:26:04.045Z</time>
      </trkpt>
      <trkpt lat="41.26592" lon="43.59185">
        <ele>1962.676881</ele>
        <time>2021-10-01T05:32:29.377Z</time>
      </trkpt>
      <trkpt lat="41.26575" lon="43.59459">
        <ele>1968.747181</ele>
        <time>2021-10-01T05:33:53.387Z</time>
      </trkpt>
      <trkpt lat="41.26707" lon="43.59703">
        <ele>1968.490032</ele>
        <time>2021-10-01T05:35:12.397Z</time>
      </trkpt>
      <trkpt lat="41.26855" lon="43.59963">
        <ele>1967.759633</ele>
        <time>2021-10-01T05:36:27.405Z</time>
      </trkpt>
      <trkpt lat="41.27021" lon="43.60254">
        <ele>1965.11393</ele>
        <time>2021-10-01T05:38:20.425Z</time>
      </trkpt>
      <trkpt lat="41.27162" lon="43.60508">
        <ele>1961.432186</ele>
        <time>2021-10-01T05:39:08.378Z</time>
      </trkpt>
      <trkpt lat="41.27291" lon="43.60747">
        <ele>1958.818738</ele>
        <time>2021-10-01T05:39:52.373Z</time>
      </trkpt>
      <trkpt lat="41.27413" lon="43.60984">
        <ele>1957.922727</ele>
        <time>2021-10-01T05:40:36.432Z</time>
      </trkpt>
      <trkpt lat="41.27572" lon="43.61287">
        <ele>1950.028645</ele>
        <time>2021-10-01T05:41:17.385Z</time>
      </trkpt>
      <trkpt lat="41.27744" lon="43.6162">
        <ele>1939.186029</ele>
        <time>2021-10-01T05:41:53.387Z</time>
      </trkpt>
      <trkpt lat="41.27882" lon="43.61887">
        <ele>1936.870971</ele>
        <time>2021-10-01T05:42:43.373Z</time>
      </trkpt>
      <trkpt lat="41.28019" lon="43.6214">
        <ele>1939.053503</ele>
        <time>2021-10-01T05:43:35.442Z</time>
      </trkpt>
      <trkpt lat="41.28143" lon="43.62387">
        <ele>1936.646647</ele>
        <time>2021-10-01T05:44:20.397Z</time>
      </trkpt>
      <trkpt lat="41.2831" lon="43.62713">
        <ele>1928.428397</ele>
        <time>2021-10-01T05:45:04.382Z</time>
      </trkpt>
      <trkpt lat="41.28467" lon="43.63017">
        <ele>1922.267944</ele>
        <time>2021-10-01T05:45:48.381Z</time>
      </trkpt>
      <trkpt lat="41.28604" lon="43.63288">
        <ele>1917.891323</ele>
        <time>2021-10-01T05:46:30.391Z</time>
      </trkpt>
      <trkpt lat="41.28761" lon="43.63595">
        <ele>1912.7661</ele>
        <time>2021-10-01T05:47:14.384Z</time>
      </trkpt>
      <trkpt lat="41.28904" lon="43.63877">
        <ele>1914.053957</ele>
        <time>2021-10-01T05:48:14.410Z</time>
      </trkpt>
      <trkpt lat="41.29039" lon="43.64133">
        <ele>1911.84266</ele>
        <time>2021-10-01T05:49:12.393Z</time>
      </trkpt>
      <trkpt lat="41.2921" lon="43.64373">
        <ele>1904.355715</ele>
        <time>2021-10-01T05:49:56.373Z</time>
      </trkpt>
      <trkpt lat="41.29407" lon="43.64575">
        <ele>1905.215349</ele>
        <time>2021-10-01T05:51:02.416Z</time>
      </trkpt>
      <trkpt lat="41.29492" lon="43.64823">
        <ele>1918.022483</ele>
        <time>2021-10-01T05:53:06.384Z</time>
      </trkpt>
      <trkpt lat="41.29506" lon="43.65095">
        <ele>1925.472789</ele>
        <time>2021-10-01T05:54:57.376Z</time>
      </trkpt>
      <trkpt lat="41.29521" lon="43.65389">
        <ele>1934.383742</ele>
        <time>2021-10-01T05:57:03.436Z</time>
      </trkpt>
      <trkpt lat="41.29537" lon="43.65673">
        <ele>1941.700841</ele>
        <time>2021-10-01T05:59:03.390Z</time>
      </trkpt>
      <trkpt lat="41.2955" lon="43.65953">
        <ele>1945.965559</ele>
        <time>2021-10-01T06:00:43.387Z</time>
      </trkpt>
      <trkpt lat="41.29573" lon="43.66267">
        <ele>1944.732747</ele>
        <time>2021-10-01T06:02:11.416Z</time>
      </trkpt>
      <trkpt lat="41.29602" lon="43.66557">
        <ele>1946.874747</ele>
        <time>2021-10-01T06:03:39.379Z</time>
      </trkpt>
      <trkpt lat="41.29631" lon="43.66833">
        <ele>1951.46404</ele>
        <time>2021-10-01T06:05:16.376Z</time>
      </trkpt>
      <trkpt lat="41.29661" lon="43.67125">
        <ele>1956.076129</ele>
        <time>2021-10-01T06:07:03.403Z</time>
      </trkpt>
      <trkpt lat="41.29651" lon="43.67402">
        <ele>1967.664849</ele>
        <time>2021-10-01T06:09:14.396Z</time>
      </trkpt>
      <trkpt lat="41.2952" lon="43.67604">
        <ele>1983.044612</ele>
        <time>2021-10-01T06:11:29.397Z</time>
      </trkpt>
      <trkpt lat="41.29495" lon="43.67869">
        <ele>1996.681537</ele>
        <time>2021-10-01T06:13:56.386Z</time>
      </trkpt>
      <trkpt lat="41.29534" lon="43.6814">
        <ele>2004.655521</ele>
        <time>2021-10-01T06:16:13.405Z</time>
      </trkpt>
      <trkpt lat="41.29477" lon="43.68418">
        <ele>2017.275965</ele>
        <time>2021-10-01T06:18:39.382Z</time>
      </trkpt>
      <trkpt lat="41.29423" lon="43.68684">
        <ele>2022.844393</ele>
        <time>2021-10-01T06:20:32.421Z</time>
      </trkpt>
      <trkpt lat="41.29367" lon="43.68968">
        <ele>2026.576193</ele>
        <time>2021-10-01T06:22:15.405Z</time>
      </trkpt>
      <trkpt lat="41.29306" lon="43.69251">
        <ele>2035.258334</ele>
        <time>2021-10-01T06:24:28.400Z</time>
      </trkpt>
      <trkpt lat="41.29236" lon="43.69522">
        <ele>2038.057546</ele>
        <time>2021-10-01T06:26:00.398Z</time>
      </trkpt>
      <trkpt lat="41.29156" lon="43.69817">
        <ele>2042.533058</ele>
        <time>2021-10-01T06:27:28.424Z</time>
      </trkpt>
      <trkpt lat="41.29165" lon="43.70102">
        <ele>2052.683099</ele>
        <time>2021-10-01T06:29:23.392Z</time>
      </trkpt>
      <trkpt lat="41.29185" lon="43.70372">
        <ele>2062.912378</ele>
        <time>2021-10-01T06:31:46.378Z</time>
      </trkpt>
      <trkpt lat="41.292" lon="43.70667">
        <ele>2066.560632</ele>
        <time>2021-10-01T06:33:28.403Z</time>
      </trkpt>
      <trkpt lat="41.29205" lon="43.70963">
        <ele>2072.850402</ele>
        <time>2021-10-01T06:35:25.412Z</time>
      </trkpt>
      <trkpt lat="41.29179" lon="43.71246">
        <ele>2076.667914</ele>
        <time>2021-10-01T06:37:23.409Z</time>
      </trkpt>
      <trkpt lat="41.29153" lon="43.7152">
        <ele>2082.558534</ele>
        <time>2021-10-01T06:39:12.397Z</time>
      </trkpt>
      <trkpt lat="41.29151" lon="43.7181">
        <ele>2089.725154</ele>
        <time>2021-10-01T06:41:09.394Z</time>
      </trkpt>
      <trkpt lat="41.29176" lon="43.7212">
        <ele>2083.63486</ele>
        <time>2021-10-01T06:52:44.395Z</time>
      </trkpt>
      <trkpt lat="41.29196" lon="43.72396">
        <ele>2079.571011</ele>
        <time>2021-10-01T06:53:53.400Z</time>
      </trkpt>
      <trkpt lat="41.2914" lon="43.72724">
        <ele>2066.615358</ele>
        <time>2021-10-01T06:54:40.409Z</time>
      </trkpt>
      <trkpt lat="41.2923" lon="43.73055">
        <ele>2056.94701</ele>
        <time>2021-10-01T06:55:37.415Z</time>
      </trkpt>
      <trkpt lat="41.29245" lon="43.73354">
        <ele>2054.303099</ele>
        <time>2021-10-01T06:56:49.402Z</time>
      </trkpt>
      <trkpt lat="41.29368" lon="43.73596">
        <ele>2061.514526</ele>
        <time>2021-10-01T06:58:22.413Z</time>
      </trkpt>
      <trkpt lat="41.29483" lon="43.73862">
        <ele>2060.88801</ele>
        <time>2021-10-01T06:59:38.448Z</time>
      </trkpt>
      <trkpt lat="41.29437" lon="43.74212">
        <ele>2049.777242</ele>
        <time>2021-10-01T07:00:08.412Z</time>
      </trkpt>
      <trkpt lat="41.29383" lon="43.74547">
        <ele>2035.746148</ele>
        <time>2021-10-01T07:00:37.409Z</time>
      </trkpt>
      <trkpt lat="41.29454" lon="43.74844">
        <ele>2025.584982</ele>
        <time>2021-10-01T07:01:10.401Z</time>
      </trkpt>
      <trkpt lat="41.29586" lon="43.75104">
        <ele>2028.518553</ele>
        <time>2021-10-01T07:02:14.411Z</time>
      </trkpt>
      <trkpt lat="41.29704" lon="43.75342">
        <ele>2028.622924</ele>
        <time>2021-10-01T07:03:17.406Z</time>
      </trkpt>
      <trkpt lat="41.29901" lon="43.75523">
        <ele>2024.813219</ele>
        <time>2021-10-01T07:04:23.417Z</time>
      </trkpt>
      <trkpt lat="41.301" lon="43.75675">
        <ele>2025.407592</ele>
        <time>2021-10-01T07:05:41.409Z</time>
      </trkpt>
      <trkpt lat="41.30279" lon="43.75812">
        <ele>2025.762203</ele>
        <time>2021-10-01T07:06:45.399Z</time>
      </trkpt>
      <trkpt lat="41.30495" lon="43.75976">
        <ele>2026.991655</ele>
        <time>2021-10-01T07:07:59.393Z</time>
      </trkpt>
      <trkpt lat="41.30698" lon="43.7607">
        <ele>2027.255526</ele>
        <time>2021-10-01T07:09:06.423Z</time>
      </trkpt>
      <trkpt lat="41.30929" lon="43.76073">
        <ele>2033.399803</ele>
        <time>2021-10-01T07:10:34.409Z</time>
      </trkpt>
      <trkpt lat="41.31141" lon="43.76003">
        <ele>2036.073111</ele>
        <time>2021-10-01T07:11:57.411Z</time>
      </trkpt>
      <trkpt lat="41.31364" lon="43.75994">
        <ele>2039.495198</ele>
        <time>2021-10-01T07:13:36.407Z</time>
      </trkpt>
      <trkpt lat="41.31562" lon="43.75893">
        <ele>2045.058974</ele>
        <time>2021-10-01T07:15:33.400Z</time>
      </trkpt>
      <trkpt lat="41.31786" lon="43.75865">
        <ele>2042.647766</ele>
        <time>2021-10-01T07:16:41.411Z</time>
      </trkpt>
      <trkpt lat="41.32025" lon="43.75931">
        <ele>2040.325832</ele>
        <time>2021-10-01T07:17:47.414Z</time>
      </trkpt>
      <trkpt lat="41.32236" lon="43.76083">
        <ele>2038.924621</ele>
        <time>2021-10-01T07:18:41.423Z</time>
      </trkpt>
      <trkpt lat="41.32456" lon="43.76107">
        <ele>2035.921283</ele>
        <time>2021-10-01T07:19:51.420Z</time>
      </trkpt>
      <trkpt lat="41.32679" lon="43.76152">
        <ele>2045.233621</ele>
        <time>2021-10-01T07:21:37.420Z</time>
      </trkpt>
      <trkpt lat="41.32897" lon="43.76214">
        <ele>2044.870475</ele>
        <time>2021-10-01T07:22:54.408Z</time>
      </trkpt>
      <trkpt lat="41.33128" lon="43.7628">
        <ele>2042.603073</ele>
        <time>2021-10-01T07:23:57.400Z</time>
      </trkpt>
      <trkpt lat="41.33345" lon="43.76345">
        <ele>2042.629924</ele>
        <time>2021-10-01T07:25:26.416Z</time>
      </trkpt>
      <trkpt lat="41.33562" lon="43.76402">
        <ele>2053.805185</ele>
        <time>2021-10-01T07:27:24.410Z</time>
      </trkpt>
      <trkpt lat="41.33775" lon="43.76466">
        <ele>2061.988727</ele>
        <time>2021-10-01T07:29:28.404Z</time>
      </trkpt>
      <trkpt lat="41.33958" lon="43.76363">
        <ele>2056.630514</ele>
        <time>2021-10-01T07:30:35.405Z</time>
      </trkpt>
      <trkpt lat="41.34093" lon="43.76123">
        <ele>2050.834834</ele>
        <time>2021-10-01T07:31:41.466Z</time>
      </trkpt>
      <trkpt lat="41.34221" lon="43.75886">
        <ele>2054.395786</ele>
        <time>2021-10-01T07:33:14.412Z</time>
      </trkpt>
      <trkpt lat="41.34357" lon="43.75638">
        <ele>2056.117498</ele>
        <time>2021-10-01T07:47:30.429Z</time>
      </trkpt>
      <trkpt lat="41.3453" lon="43.75458">
        <ele>2063.940562</ele>
        <time>2021-10-01T07:49:21.451Z</time>
      </trkpt>
      <trkpt lat="41.34721" lon="43.75326">
        <ele>2080.217413</ele>
        <time>2021-10-01T07:51:48.446Z</time>
      </trkpt>
      <trkpt lat="41.34904" lon="43.75208">
        <ele>2087.281685</ele>
        <time>2021-10-01T07:53:50.465Z</time>
      </trkpt>
      <trkpt lat="41.35107" lon="43.75331">
        <ele>2083.622366</ele>
        <time>2021-10-01T07:55:24.424Z</time>
      </trkpt>
      <trkpt lat="41.35286" lon="43.75495">
        <ele>2089.154012</ele>
        <time>2021-10-01T07:57:25.422Z</time>
      </trkpt>
      <trkpt lat="41.3547" lon="43.75665">
        <ele>2094.686485</ele>
        <time>2021-10-01T07:59:35.415Z</time>
      </trkpt>
      <trkpt lat="41.35652" lon="43.75828">
        <ele>2098.242574</ele>
        <time>2021-10-01T08:02:18.413Z</time>
      </trkpt>
      <trkpt lat="41.35833" lon="43.75997">
        <ele>2098.369152</ele>
        <time>2021-10-01T08:03:36.416Z</time>
      </trkpt>
      <trkpt lat="41.36024" lon="43.7617">
        <ele>2093.814194</ele>
        <time>2021-10-01T08:04:38.430Z</time>
      </trkpt>
      <trkpt lat="41.36204" lon="43.76336">
        <ele>2092.083843</ele>
        <time>2021-10-01T08:05:35.420Z</time>
      </trkpt>
      <trkpt lat="41.36397" lon="43.76513">
        <ele>2094.660032</ele>
        <time>2021-10-01T08:06:48.429Z</time>
      </trkpt>
      <trkpt lat="41.36584" lon="43.76679">
        <ele>2100.558849</ele>
        <time>2021-10-01T08:08:00.411Z</time>
      </trkpt>
      <trkpt lat="41.36766" lon="43.76846">
        <ele>2099.140942</ele>
        <time>2021-10-01T08:09:04.430Z</time>
      </trkpt>
      <trkpt lat="41.37003" lon="43.76963">
        <ele>2096.868582</ele>
        <time>2021-10-01T08:10:10.427Z</time>
      </trkpt>
      <trkpt lat="41.37239" lon="43.77028">
        <ele>2100.778473</ele>
        <time>2021-10-01T08:11:22.443Z</time>
      </trkpt>
      <trkpt lat="41.37455" lon="43.77106">
        <ele>2107.192751</ele>
        <time>2021-10-01T08:13:02.426Z</time>
      </trkpt>
      <trkpt lat="41.37589" lon="43.77315">
        <ele>2108.795353</ele>
        <time>2021-10-01T08:14:29.430Z</time>
      </trkpt>
      <trkpt lat="41.37723" lon="43.77561">
        <ele>2108.196493</ele>
        <time>2021-10-01T08:15:35.426Z</time>
      </trkpt>
      <trkpt lat="41.37877" lon="43.77836">
        <ele>2101.494739</ele>
        <time>2021-10-01T08:16:24.420Z</time>
      </trkpt>
      <trkpt lat="41.3802" lon="43.78046">
        <ele>2104.501295</ele>
        <time>2021-10-01T08:17:42.468Z</time>
      </trkpt>
      <trkpt lat="41.38183" lon="43.78267">
        <ele>2105.769951</ele>
        <time>2021-10-01T08:19:02.436Z</time>
      </trkpt>
      <trkpt lat="41.38318" lon="43.78552">
        <ele>2098.704928</ele>
        <time>2021-10-01T08:19:52.448Z</time>
      </trkpt>
      <trkpt lat="41.38496" lon="43.78727">
        <ele>2095.930252</ele>
        <time>2021-10-01T08:20:55.427Z</time>
      </trkpt>
      <trkpt lat="41.38691" lon="43.78901">
        <ele>2101.344582</ele>
        <time>2021-10-01T08:22:32.442Z</time>
      </trkpt>
      <trkpt lat="41.38886" lon="43.79054">
        <ele>2111.174328</ele>
        <time>2021-10-01T08:24:37.472Z</time>
      </trkpt>
      <trkpt lat="41.391" lon="43.79158">
        <ele>2111.332569</ele>
        <time>2021-10-01T08:25:51.431Z</time>
      </trkpt>
      <trkpt lat="41.39301" lon="43.79306">
        <ele>2106.641092</ele>
        <time>2021-10-01T08:26:49.436Z</time>
      </trkpt>
      <trkpt lat="41.39483" lon="43.79479">
        <ele>2109.069483</ele>
        <time>2021-10-01T08:28:12.441Z</time>
      </trkpt>
      <trkpt lat="41.39665" lon="43.79647">
        <ele>2119.302708</ele>
        <time>2021-10-01T08:30:09.445Z</time>
      </trkpt>
      <trkpt lat="41.39818" lon="43.7983">
        <ele>2125.665396</ele>
        <time>2021-10-01T08:31:58.440Z</time>
      </trkpt>
      <trkpt lat="41.39992" lon="43.80075">
        <ele>2124.2577</ele>
        <time>2021-10-01T08:33:21.449Z</time>
      </trkpt>
      <trkpt lat="41.40159" lon="43.80313">
        <ele>2121.893797</ele>
        <time>2021-10-01T08:34:27.483Z</time>
      </trkpt>
      <trkpt lat="41.40314" lon="43.80527">
        <ele>2122.929308</ele>
        <time>2021-10-01T08:35:35.439Z</time>
      </trkpt>
      <trkpt lat="41.40466" lon="43.80744">
        <ele>2126.667059</ele>
        <time>2021-10-01T08:37:10.461Z</time>
      </trkpt>
      <trkpt lat="41.40509" lon="43.81042">
        <ele>2124.315776</ele>
        <time>2021-10-01T08:38:16.477Z</time>
      </trkpt>
      <trkpt lat="41.40541" lon="43.81327">
        <ele>2118.376714</ele>
        <time>2021-10-01T08:39:11.437Z</time>
      </trkpt>
      <trkpt lat="41.4064" lon="43.81635">
        <ele>2111.072278</ele>
        <time>2021-10-01T08:40:07.470Z</time>
      </trkpt>
      <trkpt lat="41.40746" lon="43.81966">
        <ele>2114.84016</ele>
        <time>2021-10-01T08:41:13.450Z</time>
      </trkpt>
      <trkpt lat="41.40848" lon="43.82235">
        <ele>2115.8613</ele>
        <time>2021-10-01T08:42:23.439Z</time>
      </trkpt>
      <trkpt lat="41.40961" lon="43.82479">
        <ele>2116.641833</ele>
        <time>2021-10-01T08:43:26.458Z</time>
      </trkpt>
      <trkpt lat="41.41081" lon="43.8274">
        <ele>2120.289328</ele>
        <time>2021-10-01T08:44:33.460Z</time>
      </trkpt>
      <trkpt lat="41.41206" lon="43.83007">
        <ele>2118.466015</ele>
        <time>2021-10-01T08:45:21.456Z</time>
      </trkpt>
      <trkpt lat="41.4141" lon="43.83133">
        <ele>2117.778231</ele>
        <time>2021-10-01T08:46:22.445Z</time>
      </trkpt>
      <trkpt lat="41.41618" lon="43.83264">
        <ele>2120.69247</ele>
        <time>2021-10-01T08:47:34.484Z</time>
      </trkpt>
      <trkpt lat="41.41833" lon="43.83339">
        <ele>2117.618473</ele>
        <time>2021-10-01T08:48:34.444Z</time>
      </trkpt>
      <trkpt lat="41.42078" lon="43.83355">
        <ele>2114.39165</ele>
        <time>2021-10-01T08:49:37.457Z</time>
      </trkpt>
      <trkpt lat="41.42327" lon="43.83406">
        <ele>2108.811319</ele>
        <time>2021-10-01T08:50:30.463Z</time>
      </trkpt>
      <trkpt lat="41.42596" lon="43.83544">
        <ele>2101.162886</ele>
        <time>2021-10-01T08:51:16.456Z</time>
      </trkpt>
      <trkpt lat="41.42815" lon="43.83657">
        <ele>2102.518806</ele>
        <time>2021-10-01T08:52:23.449Z</time>
      </trkpt>
      <trkpt lat="41.4303" lon="43.83764">
        <ele>2101.878857</ele>
        <time>2021-10-01T08:53:15.447Z</time>
      </trkpt>
      <trkpt lat="41.43255" lon="43.83875">
        <ele>2098.702955</ele>
        <time>2021-10-01T08:54:10.457Z</time>
      </trkpt>
      <trkpt lat="41.43379" lon="43.84127">
        <ele>2105.039079</ele>
        <time>2021-10-01T08:55:28.452Z</time>
      </trkpt>
      <trkpt lat="41.43486" lon="43.84362">
        <ele>2117.86361</ele>
        <time>2021-10-01T08:57:28.445Z</time>
      </trkpt>
      <trkpt lat="41.43674" lon="43.84497">
        <ele>2136.429979</ele>
        <time>2021-10-01T09:00:07.431Z</time>
      </trkpt>
      <trkpt lat="41.43859" lon="43.84655">
        <ele>2142.054547</ele>
        <time>2021-10-01T09:02:10.457Z</time>
      </trkpt>
      <trkpt lat="41.44054" lon="43.84819">
        <ele>2140.758785</ele>
        <time>2021-10-01T09:03:17.451Z</time>
      </trkpt>
      <trkpt lat="41.443" lon="43.84909">
        <ele>2135.571734</ele>
        <time>2021-10-01T09:04:19.483Z</time>
      </trkpt>
      <trkpt lat="41.44482" lon="43.84665">
        <ele>2133.499288</ele>
        <time>2021-10-01T09:05:08.456Z</time>
      </trkpt>
      <trkpt lat="41.44662" lon="43.84826">
        <ele>2141.093365</ele>
        <time>2021-10-01T09:06:53.458Z</time>
      </trkpt>
      <trkpt lat="41.44792" lon="43.85043">
        <ele>2146.169418</ele>
        <time>2021-10-01T09:08:38.461Z</time>
      </trkpt>
      <trkpt lat="41.44931" lon="43.85275">
        <ele>2158.908356</ele>
        <time>2021-10-01T09:10:40.460Z</time>
      </trkpt>
      <trkpt lat="41.45131" lon="43.85453">
        <ele>2156.653825</ele>
        <time>2021-10-01T09:11:43.453Z</time>
      </trkpt>
      <trkpt lat="41.45326" lon="43.85372">
        <ele>2158.183565</ele>
        <time>2021-10-01T09:13:21.457Z</time>
      </trkpt>
      <trkpt lat="41.45546" lon="43.85447">
        <ele>2162.833154</ele>
        <time>2021-10-01T09:14:58.461Z</time>
      </trkpt>
      <trkpt lat="41.45744" lon="43.85608">
        <ele>2157.084801</ele>
        <time>2021-10-01T09:15:43.451Z</time>
      </trkpt>
      <trkpt lat="41.45965" lon="43.85786">
        <ele>2142.552923</ele>
        <time>2021-10-01T09:16:16.456Z</time>
      </trkpt>
      <trkpt lat="41.46144" lon="43.85981">
        <ele>2137.856474</ele>
        <time>2021-10-01T09:17:25.447Z</time>
      </trkpt>
      <trkpt lat="41.46325" lon="43.86117">
        <ele>2134.04355</ele>
        <time>2021-10-01T09:18:33.444Z</time>
      </trkpt>
      <trkpt lat="41.46559" lon="43.8594">
        <ele>2128.708817</ele>
        <time>2021-10-01T09:19:23.460Z</time>
      </trkpt>
      <trkpt lat="41.46745" lon="43.85785">
        <ele>2121.422862</ele>
        <time>2021-10-01T09:20:08.470Z</time>
      </trkpt>
      <trkpt lat="41.46938" lon="43.85611">
        <ele>2126.081869</ele>
        <time>2021-10-01T09:21:13.465Z</time>
      </trkpt>
      <trkpt lat="41.47138" lon="43.85428">
        <ele>2128.666371</ele>
        <time>2021-10-01T09:22:22.469Z</time>
      </trkpt>
      <trkpt lat="41.47363" lon="43.85245">
        <ele>2127.549629</ele>
        <time>2021-10-01T09:23:23.460Z</time>
      </trkpt>
      <trkpt lat="41.47588" lon="43.85094">
        <ele>2128.885761</ele>
        <time>2021-10-01T09:24:30.448Z</time>
      </trkpt>
      <trkpt lat="41.47814" lon="43.85039">
        <ele>2133.504047</ele>
        <time>2021-10-01T09:25:56.461Z</time>
      </trkpt>
      <trkpt lat="41.4803" lon="43.8511">
        <ele>2133.734493</ele>
        <time>2021-10-01T09:27:20.448Z</time>
      </trkpt>
      <trkpt lat="41.48212" lon="43.85278">
        <ele>2139.593828</ele>
        <time>2021-10-01T09:28:55.453Z</time>
      </trkpt>
      <trkpt lat="41.48385" lon="43.85468">
        <ele>2142.720275</ele>
        <time>2021-10-01T09:30:36.465Z</time>
      </trkpt>
      <trkpt lat="41.48545" lon="43.85651">
        <ele>2146.733534</ele>
        <time>2021-10-01T09:32:09.475Z</time>
      </trkpt>
      <trkpt lat="41.48681" lon="43.85879">
        <ele>2148.005186</ele>
        <time>2021-10-01T09:33:46.464Z</time>
      </trkpt>
      <trkpt lat="41.48809" lon="43.8612">
        <ele>2148.605433</ele>
        <time>2021-10-01T09:40:22.479Z</time>
      </trkpt>
      <trkpt lat="41.48937" lon="43.86355">
        <ele>2148.720862</ele>
        <time>2021-10-01T09:41:48.509Z</time>
      </trkpt>
      <trkpt lat="41.49059" lon="43.86582">
        <ele>2153.525596</ele>
        <time>2021-10-01T09:43:17.481Z</time>
      </trkpt>
      <trkpt lat="41.49239" lon="43.86709">
        <ele>2164.554131</ele>
        <time>2021-10-01T09:45:21.475Z</time>
      </trkpt>
      <trkpt lat="41.49432" lon="43.86801">
        <ele>2178.212201</ele>
        <time>2021-10-01T09:47:42.483Z</time>
      </trkpt>
      <trkpt lat="41.49558" lon="43.8702">
        <ele>2186.698886</ele>
        <time>2021-10-01T09:50:01.478Z</time>
      </trkpt>
      <trkpt lat="41.49692" lon="43.87254">
        <ele>2188.90804</ele>
        <time>2021-10-01T09:52:00.458Z</time>
      </trkpt>
      <trkpt lat="41.49837" lon="43.87502">
        <ele>2179.921403</ele>
        <time>2021-10-01T09:53:02.487Z</time>
      </trkpt>
      <trkpt lat="41.50014" lon="43.87774">
        <ele>2167.090403</ele>
        <time>2021-10-01T09:53:44.482Z</time>
      </trkpt>
      <trkpt lat="41.50239" lon="43.8797">
        <ele>2151.458412</ele>
        <time>2021-10-01T09:54:13.484Z</time>
      </trkpt>
      <trkpt lat="41.50458" lon="43.88157">
        <ele>2145.766833</ele>
        <time>2021-10-01T09:55:01.464Z</time>
      </trkpt>
      <trkpt lat="41.50653" lon="43.88327">
        <ele>2149.73593</ele>
        <time>2021-10-01T09:56:21.465Z</time>
      </trkpt>
      <trkpt lat="41.50827" lon="43.88477">
        <ele>2148.078864</ele>
        <time>2021-10-01T09:57:26.485Z</time>
      </trkpt>
      <trkpt lat="41.51024" lon="43.88647">
        <ele>2143.171896</ele>
        <time>2021-10-01T09:58:21.469Z</time>
      </trkpt>
      <trkpt lat="41.51275" lon="43.88741">
        <ele>2136.904582</ele>
        <time>2021-10-01T09:59:05.459Z</time>
      </trkpt>
      <trkpt lat="41.51572" lon="43.88644">
        <ele>2124.488736</ele>
        <time>2021-10-01T09:59:43.497Z</time>
      </trkpt>
      <trkpt lat="41.51843" lon="43.88571">
        <ele>2114.443086</ele>
        <time>2021-10-01T10:00:13.473Z</time>
      </trkpt>
      <trkpt lat="41.52111" lon="43.88529">
        <ele>2107.995691</ele>
        <time>2021-10-01T10:00:44.473Z</time>
      </trkpt>
      <trkpt lat="41.52339" lon="43.886">
        <ele>2107.811818</ele>
        <time>2021-10-01T10:01:30.480Z</time>
      </trkpt>
      <trkpt lat="41.52638" lon="43.88655">
        <ele>2099.397134</ele>
        <time>2021-10-01T10:02:14.505Z</time>
      </trkpt>
      <trkpt lat="41.52921" lon="43.88734">
        <ele>2085.960062</ele>
        <time>2021-10-01T10:02:52.472Z</time>
      </trkpt>
      <trkpt lat="41.53249" lon="43.8887">
        <ele>2068.176282</ele>
        <time>2021-10-01T10:03:35.457Z</time>
      </trkpt>
      <trkpt lat="41.5354" lon="43.89035">
        <ele>2052.538388</ele>
        <time>2021-10-01T10:04:13.481Z</time>
      </trkpt>
      <trkpt lat="41.53831" lon="43.89056">
        <ele>2038.649453</ele>
        <time>2021-10-01T10:04:51.469Z</time>
      </trkpt>
      <trkpt lat="41.54083" lon="43.88833">
        <ele>2021.237496</ele>
        <time>2021-10-01T10:05:26.477Z</time>
      </trkpt>
      <trkpt lat="41.54426" lon="43.88891">
        <ele>2001.153304</ele>
        <time>2021-10-01T10:06:08.472Z</time>
      </trkpt>
      <trkpt lat="41.5471" lon="43.8898">
        <ele>1979.080908</ele>
        <time>2021-10-01T10:06:49.473Z</time>
      </trkpt>
      <trkpt lat="41.54957" lon="43.89108">
        <ele>1953.690278</ele>
        <time>2021-10-01T10:14:58.478Z</time>
      </trkpt>
      <trkpt lat="41.55026" lon="43.88886">
        <ele>1933.581518</ele>
        <time>2021-10-01T10:15:40.464Z</time>
      </trkpt>
      <trkpt lat="41.55082" lon="43.8889">
        <ele>1914.401494</ele>
        <time>2021-10-01T10:16:28.483Z</time>
      </trkpt>
      <trkpt lat="41.55369" lon="43.89053">
        <ele>1887.790305</ele>
        <time>2021-10-01T10:17:10.483Z</time>
      </trkpt>
      <trkpt lat="41.55612" lon="43.89266">
        <ele>1862.106037</ele>
        <time>2021-10-01T10:17:48.466Z</time>
      </trkpt>
      <trkpt lat="41.55799" lon="43.89631">
        <ele>1837.465724</ele>
        <time>2021-10-01T10:18:30.475Z</time>
      </trkpt>
      <trkpt lat="41.5594" lon="43.90041">
        <ele>1811.285082</ele>
        <time>2021-10-01T10:19:14.487Z</time>
      </trkpt>
      <trkpt lat="41.56173" lon="43.90277">
        <ele>1784.421863</ele>
        <time>2021-10-01T10:19:54.484Z</time>
      </trkpt>
      <trkpt lat="41.56452" lon="43.90329">
        <ele>1755.60302</ele>
        <time>2021-10-01T10:20:36.476Z</time>
      </trkpt>
      <trkpt lat="41.56695" lon="43.90161">
        <ele>1728.775766</ele>
        <time>2021-10-01T10:21:20.544Z</time>
      </trkpt>
      <trkpt lat="41.56985" lon="43.90092">
        <ele>1700.279049</ele>
        <time>2021-10-01T10:22:07.485Z</time>
      </trkpt>
      <trkpt lat="41.57309" lon="43.90049">
        <ele>1664.366052</ele>
        <time>2021-10-01T10:22:47.482Z</time>
      </trkpt>
      <trkpt lat="41.57599" lon="43.89979">
        <ele>1640.158885</ele>
        <time>2021-10-01T10:23:24.517Z</time>
      </trkpt>
      <trkpt lat="41.57845" lon="43.90025">
        <ele>1616.179171</ele>
        <time>2021-10-01T10:24:08.489Z</time>
      </trkpt>
      <trkpt lat="41.57982" lon="43.90387">
        <ele>1591.089265</ele>
        <time>2021-10-01T10:24:50.488Z</time>
      </trkpt>
      <trkpt lat="41.58104" lon="43.90768">
        <ele>1573.807166</ele>
        <time>2021-10-01T10:25:33.493Z</time>
      </trkpt>
      <trkpt lat="41.58061" lon="43.91147">
        <ele>1568.576246</ele>
        <time>2021-10-01T10:26:17.465Z</time>
      </trkpt>
      <trkpt lat="41.58146" lon="43.91517">
        <ele>1561.531294</ele>
        <time>2021-10-01T10:27:00.477Z</time>
      </trkpt>
      <trkpt lat="41.58378" lon="43.91815">
        <ele>1551.719844</ele>
        <time>2021-10-01T10:27:42.488Z</time>
      </trkpt>
      <trkpt lat="41.58582" lon="43.92063">
        <ele>1544.987487</ele>
        <time>2021-10-01T10:28:26.483Z</time>
      </trkpt>
      <trkpt lat="41.58777" lon="43.92248">
        <ele>1542.835696</ele>
        <time>2021-10-01T10:29:13.485Z</time>
      </trkpt>
      <trkpt lat="41.58951" lon="43.92494">
        <ele>1544.975901</ele>
        <time>2021-10-01T10:30:13.506Z</time>
      </trkpt>
      <trkpt lat="41.58994" lon="43.92777">
        <ele>1556.907563</ele>
        <time>2021-10-01T10:32:18.475Z</time>
      </trkpt>
      <trkpt lat="41.58978" lon="43.93078">
        <ele>1561.172398</ele>
        <time>2021-10-01T10:33:50.494Z</time>
      </trkpt>
      <trkpt lat="41.5921" lon="43.93075">
        <ele>1558.644047</ele>
        <time>2021-10-01T10:34:38.473Z</time>
      </trkpt>
      <trkpt lat="41.5934" lon="43.93327">
        <ele>1565.810381</ele>
        <time>2021-10-01T10:35:54.488Z</time>
      </trkpt>
      <trkpt lat="41.59343" lon="43.93732">
        <ele>1553.134797</ele>
        <time>2021-10-01T10:36:38.487Z</time>
      </trkpt>
      <trkpt lat="41.59406" lon="43.94088">
        <ele>1549.416067</ele>
        <time>2021-10-01T10:37:22.481Z</time>
      </trkpt>
      <trkpt lat="41.5941" lon="43.94362">
        <ele>1547.175285</ele>
        <time>2021-10-01T10:38:17.497Z</time>
      </trkpt>
      <trkpt lat="41.59251" lon="43.94694">
        <ele>1539.854405</ele>
        <time>2021-10-01T10:39:01.485Z</time>
      </trkpt>
      <trkpt lat="41.59254" lon="43.95021">
        <ele>1542.209753</ele>
        <time>2021-10-01T10:39:53.509Z</time>
      </trkpt>
      <trkpt lat="41.59337" lon="43.95328">
        <ele>1542.679794</ele>
        <time>2021-10-01T10:40:47.494Z</time>
      </trkpt>
      <trkpt lat="41.59516" lon="43.95516">
        <ele>1543.503197</ele>
        <time>2021-10-01T10:41:36.500Z</time>
      </trkpt>
      <trkpt lat="41.59527" lon="43.95826">
        <ele>1547.347573</ele>
        <time>2021-10-01T10:42:36.494Z</time>
      </trkpt>
      <trkpt lat="41.5952" lon="43.96103">
        <ele>1554.033305</ele>
        <time>2021-10-01T10:44:05.478Z</time>
      </trkpt>
      <trkpt lat="41.59388" lon="43.96386">
        <ele>1551.237528</ele>
        <time>2021-10-01T10:45:11.518Z</time>
      </trkpt>
      <trkpt lat="41.59298" lon="43.96665">
        <ele>1547.444543</ele>
        <time>2021-10-01T10:45:56.507Z</time>
      </trkpt>
      <trkpt lat="41.59337" lon="43.96935">
        <ele>1546.404757</ele>
        <time>2021-10-01T10:46:40.496Z</time>
      </trkpt>
      <trkpt lat="41.59415" lon="43.97222">
        <ele>1549.370548</ele>
        <time>2021-10-01T10:47:42.514Z</time>
      </trkpt>
      <trkpt lat="41.59513" lon="43.97516">
        <ele>1549.174888</ele>
        <time>2021-10-01T10:48:34.476Z</time>
      </trkpt>
      <trkpt lat="41.59608" lon="43.97824">
        <ele>1545.278505</ele>
        <time>2021-10-01T10:49:25.476Z</time>
      </trkpt>
      <trkpt lat="41.59694" lon="43.98102">
        <ele>1545.515598</ele>
        <time>2021-10-01T10:50:14.486Z</time>
      </trkpt>
      <trkpt lat="41.59776" lon="43.98399">
        <ele>1548.764847</ele>
        <time>2021-10-01T10:51:20.508Z</time>
      </trkpt>
      <trkpt lat="41.59815" lon="43.98698">
        <ele>1547.185788</ele>
        <time>2021-10-01T10:52:11.512Z</time>
      </trkpt>
      <trkpt lat="41.59846" lon="43.98966">
        <ele>1545.32575</ele>
        <time>2021-10-01T10:52:55.490Z</time>
      </trkpt>
      <trkpt lat="41.59875" lon="43.99267">
        <ele>1546.532393</ele>
        <time>2021-10-01T10:53:48.488Z</time>
      </trkpt>
      <trkpt lat="41.59915" lon="43.99569">
        <ele>1550.117738</ele>
        <time>2021-10-01T10:54:58.484Z</time>
      </trkpt>
      <trkpt lat="41.59971" lon="43.99896">
        <ele>1548.862818</ele>
        <time>2021-10-01T10:55:42.497Z</time>
      </trkpt>
      <trkpt lat="41.59997" lon="44.00187">
        <ele>1552.795765</ele>
        <time>2021-10-01T10:56:55.497Z</time>
      </trkpt>
      <trkpt lat="41.5998" lon="44.005">
        <ele>1552.545996</ele>
        <time>2021-10-01T10:57:59.487Z</time>
      </trkpt>
      <trkpt lat="41.59949" lon="44.00841">
        <ele>1547.906783</ele>
        <time>2021-10-01T10:58:48.496Z</time>
      </trkpt>
      <trkpt lat="41.59915" lon="44.01149">
        <ele>1544.371923</ele>
        <time>2021-10-01T10:59:34.533Z</time>
      </trkpt>
      <trkpt lat="41.59886" lon="44.01478">
        <ele>1542.539365</ele>
        <time>2021-10-01T11:00:18.497Z</time>
      </trkpt>
      <trkpt lat="41.59857" lon="44.01776">
        <ele>1546.511578</ele>
        <time>2021-10-01T11:01:33.488Z</time>
      </trkpt>
      <trkpt lat="41.5983" lon="44.02051">
        <ele>1552.625561</ele>
        <time>2021-10-01T11:03:02.515Z</time>
      </trkpt>
      <trkpt lat="41.59781" lon="44.02366">
        <ele>1551.441423</ele>
        <time>2021-10-01T11:04:01.498Z</time>
      </trkpt>
      <trkpt lat="41.59838" lon="44.02658">
        <ele>1551.220104</ele>
        <time>2021-10-01T11:04:51.526Z</time>
      </trkpt>
      <trkpt lat="41.59957" lon="44.02926">
        <ele>1554.786447</ele>
        <time>2021-10-01T11:05:54.536Z</time>
      </trkpt>
      <trkpt lat="41.60081" lon="44.03201">
        <ele>1553.765502</ele>
        <time>2021-10-01T11:06:50.489Z</time>
      </trkpt>
      <trkpt lat="41.60208" lon="44.03464">
        <ele>1557.085057</ele>
        <time>2021-10-01T11:07:41.486Z</time>
      </trkpt>
      <trkpt lat="41.60342" lon="44.03697">
        <ele>1563.075916</ele>
        <time>2021-10-01T11:09:15.534Z</time>
      </trkpt>
      <trkpt lat="41.60481" lon="44.03915">
        <ele>1565.748991</ele>
        <time>2021-10-01T11:10:38.512Z</time>
      </trkpt>
      <trkpt lat="41.6055" lon="44.04217">
        <ele>1556.210976</ele>
        <time>2021-10-01T11:11:22.506Z</time>
      </trkpt>
      <trkpt lat="41.60434" lon="44.04603">
        <ele>1548.062631</ele>
        <time>2021-10-01T11:12:02.513Z</time>
      </trkpt>
      <trkpt lat="41.60343" lon="44.04876">
        <ele>1553.647636</ele>
        <time>2021-10-01T11:13:02.493Z</time>
      </trkpt>
      <trkpt lat="41.60244" lon="44.05177">
        <ele>1555.215046</ele>
        <time>2021-10-01T11:14:08.507Z</time>
      </trkpt>
      <trkpt lat="41.60261" lon="44.0544">
        <ele>1550.396478</ele>
        <time>2021-10-01T11:15:03.521Z</time>
      </trkpt>
      <trkpt lat="41.60304" lon="44.05772">
        <ele>1541.340562</ele>
        <time>2021-10-01T11:15:45.481Z</time>
      </trkpt>
      <trkpt lat="41.60276" lon="44.06085">
        <ele>1547.147448</ele>
        <time>2021-10-01T11:16:47.519Z</time>
      </trkpt>
      <trkpt lat="41.60333" lon="44.06179">
        <ele>1547.147448</ele>
        <time>2021-10-01T11:41:48.204Z</time>
      </trkpt>
    </trkseg>
  </trk>
</gpx>